Date,TemperatureHighF,TemperatureAvgF,TemperatureLowF,DewpointHighF,DewpointAvgF,DewpointLowF,HumidityHigh,HumidityAvg,HumidityLow,PressureMaxIn,PressureMinIn,WindSpeedMaxMPH,WindSpeedAvgMPH,GustSpeedMaxMPH,PrecipitationSumIn
2013-1-3,23.5,17.1,11.7,8.5,5.4,1.9,66,60,51,30.11,30.05,6,2,8,0.00
2013-1-4,42.6,26.9,14.9,16.5,10.3,6.8,71,53,33,30.06,30.05,2,0,2,0.00
2013-1-5,1.4,-2.2,-4.0,-2.5,-5.5,-7.5,85,85,84,30.06,30.05,1,0,2,0.00
2013-1-9,42.1,37.7,33.3,35.1,33.9,32.6,99,86,74,29.76,29.46,10,3,23,0.07
2013-1-10,33.3,24.5,19.6,32.8,20.6,13.6,98,85,65,29.51,29.41,1,0,5,0.01
2013-1-11,32.2,17.7,5.2,15.0,9.9,1.7,86,72,43,29.80,29.50,8,3,19,0.00
2013-1-12,34.3,5.0,-8.5,11.4,-1.3,-11.9,89,77,35,29.87,29.79,4,1,7,0.00
2013-1-13,38.5,2.9,-10.7,11.0,-4.1,-14.2,88,75,29,29.97,29.85,3,1,7,0.00
2013-1-14,22.5,7.9,-6.3,12.5,3.5,-9.5,88,82,65,30.07,29.96,4,0,5,0.00
2013-1-15,43.9,19.0,4.6,22.3,12.4,2.4,93,78,41,30.27,30.07,2,0,4,0.02
2013-1-16,32.4,8.4,-0.6,16.2,3.6,-3.3,89,82,49,30.31,30.25,3,0,8,0.00
2013-1-17,31.6,7.7,-3.3,16.3,2.3,-6.5,90,80,46,30.31,30.18,2,0,4,0.00
2013-1-18,30.0,6.7,-5.1,14.2,1.3,-8.3,90,79,50,30.19,30.09,2,0,5,0.00
2013-1-19,34.7,8.3,-4.4,14.0,1.7,-7.6,89,76,38,30.21,30.14,2,0,4,0.00
2013-1-20,36.0,9.1,-5.3,16.7,2.3,-8.7,90,76,41,30.21,30.13,4,0,6,0.00
2013-1-21,36.9,10.7,-3.3,17.6,3.8,-6.3,89,76,39,30.15,30.03,2,0,4,0.00
2013-1-22,34.2,9.4,-6.0,15.5,2.5,-9.4,89,75,45,30.07,29.95,2,0,4,0.00
2013-1-23,34.9,16.7,1.2,33.1,12.0,-1.6,93,82,59,29.96,29.84,4,1,11,0.01
2013-1-24,48.2,35.9,32.5,43.6,34.3,32.3,99,94,71,29.99,29.88,5,1,15,0.35
2013-1-25,40.1,35.9,34.0,38.8,35.5,33.7,99,99,95,29.99,29.75,8,1,16,0.39
2013-1-26,40.8,34.4,28.6,38.4,33.7,28.3,99,98,87,29.78,29.59,5,1,14,0.18
2013-1-27,38.3,23.9,15.3,28.2,20.0,13.8,99,86,54,29.71,29.65,0,0,0,0.04
2013-1-28,32.2,20.5,11.7,24.3,18.3,10.3,98,91,67,29.71,29.61,0,0,0,0.00
2013-1-29,37.8,27.2,22.5,29.5,24.8,22.0,99,91,70,29.92,29.61,4,0,11,0.04
2013-1-30,50.5,32.0,26.4,36.4,28.9,26.1,99,90,52,30.02,29.90,4,0,8,0.08
2013-1-31,42.4,31.6,24.4,36.7,30.2,24.2,99,95,79,30.05,29.97,2,0,5,0.01
2013-2-1,51.4,34.5,19.4,41.6,29.7,18.0,99,85,46,30.14,29.97,5,1,9,0.00
2013-2-2,48.2,22.5,7.5,28.8,17.2,6.0,96,82,43,30.19,30.06,4,0,7,0.00
2013-2-3,40.3,21.1,11.7,29.2,18.0,10.3,95,88,59,30.06,29.93,3,1,7,0.19
2013-2-4,53.1,31.2,17.2,33.4,26.2,15.9,97,83,46,29.93,29.82,141,2,141,0.00
2013-2-5,50.7,35.0,25.0,33.7,28.0,24.3,98,78,43,29.82,29.66,4,1,14,0.00
2013-2-6,48.9,29.8,19.2,33.9,22.5,15.6,98,77,44,29.85,29.73,7,1,10,0.00
2013-2-7,45.5,30.0,18.1,26.0,22.0,15.5,91,73,41,29.83,29.65,11,2,19,0.00
2013-2-8,40.1,26.8,14.5,24.7,19.6,13.2,97,76,50,29.70,29.63,11,3,21,0.00
2013-2-9,37.8,29.0,22.3,23.7,19.4,13.4,89,68,48,29.75,29.66,11,4,23,0.00
2013-2-10,42.8,26.2,12.0,21.7,16.1,9.4,91,69,33,29.89,29.75,8,2,14,0.00
2013-2-11,45.5,21.2,3.6,21.2,12.2,0.9,92,72,35,29.93,29.86,6,1,9,0.00
2013-2-15,58.5,38.2,21.7,29.8,25.1,19.5,91,64,28,30.45,30.34,4,1,5,0.00
2013-2-16,53.8,35.8,14.4,32.8,26.4,13.0,99,73,36,30.35,29.95,10,2,21,0.01
2013-2-17,47.8,28.6,17.1,36.7,23.3,14.9,98,83,38,30.10,29.98,6,1,10,0.12
2013-2-18,38.3,19.9,5.2,22.2,13.0,3.0,93,76,41,30.10,29.81,6,1,11,0.00
2013-2-19,43.9,24.9,15.6,33.3,21.2,12.9,95,86,61,29.81,29.70,5,0,8,0.13
2013-2-20,41.4,22.2,3.7,26.6,14.1,1.8,96,74,39,29.95,29.80,9,1,17,0.02
2013-2-21,37.4,17.7,-3.8,23.7,10.7,-7.3,96,76,37,30.05,29.94,6,1,8,0.00
2013-2-22,34.3,27.0,19.0,29.2,25.1,18.1,99,93,77,30.07,29.78,10,2,22,0.04
2013-2-23,39.6,26.1,17.2,31.0,21.1,15.8,99,83,47,30.15,29.73,17,3,31,0.07
2013-2-24,47.3,22.2,3.7,24.6,15.0,1.6,97,77,33,30.26,30.14,5,1,8,0.02
2013-2-25,43.7,21.4,9.3,29.6,17.2,7.1,96,85,50,30.18,30.01,11,1,14,0.13
2013-2-26,49.6,19.5,1.6,25.7,13.1,-0.8,96,79,33,30.29,30.10,5,1,7,0.02
2013-2-27,51.4,20.6,3.4,24.7,12.2,0.2,92,74,28,30.33,30.26,4,1,6,0.00
2013-2-28,41.2,28.9,15.8,34.0,26.6,13.4,99,91,72,30.43,30.27,7,1,11,0.19
2013-3-1,56.3,37.1,27.7,44.3,35.0,27.5,99,93,58,30.48,30.42,4,1,8,0.02
2013-3-2,55.6,36.4,23.4,39.0,31.3,23.1,99,84,50,30.43,30.04,8,1,14,0.00
2013-3-3,44.8,33.7,16.2,36.8,19.9,3.4,98,62,24,30.10,29.97,13,3,25,0.14
2013-3-4,47.5,24.9,6.8,19.1,9.7,1.2,89,58,17,30.21,30.09,7,1,12,0.00
2013-3-5,46.6,27.8,11.1,25.5,15.9,6.0,82,63,34,30.14,29.82,9,1,15,0.00
2013-3-6,38.8,32.5,28.4,37.3,30.5,22.7,99,92,75,29.96,29.73,11,1,34,0.14
2013-3-7,51.8,31.3,16.5,34.2,23.6,15.6,99,77,33,30.06,29.95,6,1,10,0.11
2013-3-8,53.1,29.4,7.7,25.1,17.4,5.7,94,66,22,30.02,29.89,7,2,14,0.00
2013-3-9,50.7,31.6,12.4,23.2,18.4,9.0,88,61,31,30.35,30.02,8,2,17,0.00
2013-3-10,50.4,30.8,12.0,24.9,18.5,9.6,91,64,26,30.38,30.27,4,1,8,0.00
2013-3-11,53.8,40.0,32.7,37.4,30.6,24.4,99,72,39,30.27,30.21,11,2,16,0.01
2013-3-12,54.0,38.6,26.4,36.7,31.3,24.4,94,77,49,30.25,30.19,4,1,9,0.00
2013-3-13,37.2,35.7,34.3,33.6,32.8,32.1,92,89,86,30.24,30.23,3,0,4,0.00
2013-3-14,59.4,48.4,26.1,34.7,30.6,24.6,94,52,33,30.26,30.14,6,2,13,0.00
2013-3-15,63.9,44.0,31.6,36.1,31.4,28.2,90,64,30,30.18,30.10,8,1,10,0.00
2013-3-16,55.6,37.2,21.9,35.3,28.1,21.0,97,73,35,30.12,29.84,14,2,23,0.00
2013-3-17,39.2,30.2,22.6,31.4,16.7,9.8,85,58,37,30.06,29.82,23,5,44,0.01
2013-3-18,44.1,29.7,17.4,25.7,17.9,12.3,86,63,35,30.13,30.04,12,2,22,0.02
2013-3-19,54.1,32.6,11.5,22.9,11.8,-4.4,86,50,10,30.22,30.00,8,2,15,0.00
2013-3-20,45.7,37.7,33.3,42.2,33.4,20.2,99,86,43,30.00,29.71,22,4,35,0.91
2013-3-21,33.4,30.6,29.1,27.9,25.8,21.1,92,82,69,29.91,29.86,8,2,17,0.00
2013-3-22,35.4,27.6,16.7,24.4,15.4,6.9,94,62,32,30.14,29.96,12,3,18,0.04
2013-3-23,43.9,21.2,6.6,23.3,12.4,4.2,91,72,28,30.23,30.13,8,1,14,0.00
2013-3-24,48.7,26.0,7.3,20.2,12.9,4.9,90,63,24,30.23,30.13,4,1,8,0.00
2013-3-25,55.4,32.2,14.5,27.1,18.2,10.9,87,61,22,30.16,30.00,4,1,7,0.00
2013-3-26,59.7,40.9,29.5,32.7,28.8,24.9,91,65,32,30.01,29.96,11,1,14,0.00
2013-3-27,61.0,38.5,24.4,38.9,31.0,23.5,98,78,39,30.05,30.00,6,1,12,0.00
2013-3-28,63.9,43.2,29.5,38.9,32.3,28.2,98,71,30,30.12,30.04,8,1,14,0.00
2013-3-29,62.8,44.4,34.7,43.3,36.1,31.4,99,75,40,30.23,30.12,6,1,13,0.02
2013-3-30,69.6,44.2,26.4,38.8,29.6,15.6,99,66,13,30.28,30.17,6,1,11,0.00
2013-3-31,73.8,43.8,22.3,30.0,23.1,10.0,89,53,10,30.18,29.96,6,2,10,0.00
2013-4-1,67.5,45.3,25.9,37.4,28.7,22.2,89,57,26,30.06,29.98,8,2,13,0.00
2013-4-2,70.7,46.4,29.1,38.4,33.2,27.9,96,65,26,30.13,30.06,8,2,17,0.00
2013-4-3,66.2,46.5,32.0,41.0,34.4,29.4,96,67,32,30.19,30.10,10,1,14,0.00
2013-4-4,59.5,43.2,33.6,42.4,36.5,30.8,95,79,44,30.12,29.93,13,1,22,0.00
2013-4-5,62.2,43.5,35.8,43.1,38.2,33.6,99,84,41,30.03,29.93,10,2,18,0.14
2013-4-6,51.4,41.0,37.2,45.9,38.9,34.3,99,93,70,30.02,29.93,8,1,14,0.50
2013-4-7,47.7,37.0,32.2,43.2,35.7,30.3,99,95,66,29.93,29.73,13,2,24,0.78
2013-4-8,46.4,35.8,28.0,30.2,26.5,23.8,93,71,45,30.03,29.76,16,4,30,0.01
2013-4-9,55.4,39.9,27.9,25.8,22.5,17.3,76,53,25,30.22,30.02,17,4,26,0.00
2013-4-10,56.1,44.3,28.2,42.4,33.7,20.4,92,68,32,30.23,30.02,10,2,21,0.04
2013-4-11,59.2,41.7,27.7,33.1,27.6,20.1,94,62,30,30.11,30.02,11,2,15,0.00
2013-4-12,58.1,40.0,24.4,32.3,24.3,13.5,92,59,19,30.08,29.77,10,2,17,0.00
2013-4-13,46.2,38.4,27.1,36.1,17.6,1.4,81,45,17,29.90,29.68,19,4,32,0.02
2013-4-14,47.3,31.4,22.6,28.2,21.0,15.1,94,67,30,29.91,29.80,10,2,15,0.00
2013-4-15,44.8,32.0,22.5,33.2,26.0,21.5,98,80,42,29.88,29.77,12,2,19,0.04
2013-4-16,46.2,34.5,25.2,24.0,17.8,13.1,75,53,27,30.13,29.86,14,5,30,0.01
2013-4-17,49.5,34.6,21.9,18.1,10.5,-1.8,76,41,12,30.28,30.12,13,4,25,0.00
2013-4-18,56.5,37.3,19.8,29.4,19.8,11.9,79,51,25,30.32,30.24,12,2,20,0.00
2013-4-19,45.1,39.7,36.1,42.5,36.9,28.5,99,90,66,30.25,30.03,6,1,14,0.40
2013-4-20,60.1,43.5,33.8,44.4,35.4,29.4,99,76,39,30.17,30.07,14,2,22,0.06
2013-4-21,53.6,41.8,30.9,38.9,32.0,27.0,95,71,37,30.16,30.03,12,2,24,0.01
2013-4-22,49.8,38.7,30.7,32.6,21.0,8.8,90,53,23,30.31,30.07,14,5,25,0.00
2013-4-23,56.1,39.2,23.0,26.0,15.2,-3.7,88,44,10,30.31,30.14,8,2,16,0.00
2013-4-24,61.7,43.2,25.3,26.3,19.4,8.7,82,45,13,30.30,30.12,11,2,17,0.00
2013-4-25,68.9,47.5,28.4,32.5,25.6,15.1,87,50,13,30.15,30.04,13,2,22,0.00
2013-4-26,75.4,52.3,32.4,38.5,32.6,27.3,89,54,17,30.28,30.15,13,2,17,0.00
2013-4-27,75.4,53.7,34.3,43.7,32.3,17.2,93,53,13,30.30,30.13,11,2,23,0.00
2013-4-28,64.2,52.1,43.2,42.4,32.7,19.4,82,51,19,30.15,30.06,19,3,30,0.00
2013-4-29,55.9,46.6,35.4,43.1,29.0,5.0,90,53,15,30.06,29.90,16,4,27,0.17
2013-4-30,45.5,34.8,26.2,28.9,20.1,12.1,89,57,29,30.25,29.95,13,4,22,0.00
2013-5-1,59.5,39.3,21.4,24.4,16.7,5.2,86,47,12,30.55,30.25,10,3,17,0.00
2013-5-2,71.8,46.2,25.9,34.2,22.9,11.9,86,49,10,30.57,30.33,11,2,14,0.00
2013-5-3,68.9,50.5,33.8,34.7,28.4,19.4,81,48,17,30.33,30.15,11,3,24,0.00
2013-5-4,66.2,53.9,43.2,34.2,30.8,23.8,69,44,21,30.17,30.05,12,4,21,0.00
2013-5-5,77.2,54.2,34.7,45.8,32.9,23.0,88,51,14,30.06,29.95,11,2,19,0.00
2013-5-6,82.2,57.2,35.6,41.7,33.3,15.6,93,51,10,30.02,29.89,8,2,18,0.00
2013-5-7,79.0,56.7,37.9,52.0,38.5,25.6,93,59,15,30.08,29.92,14,3,27,0.04
2013-5-8,82.2,61.5,41.7,49.2,39.5,19.5,94,54,10,30.17,30.06,11,2,17,0.00
2013-5-9,82.8,63.3,41.7,46.8,39.1,25.8,92,50,13,30.23,30.14,10,2,18,0.00
2013-5-10,85.8,63.0,42.1,46.9,36.1,19.7,90,47,10,30.32,30.23,8,2,14,0.00
2013-5-11,85.1,61.6,43.5,51.7,39.7,26.6,81,51,12,30.33,30.22,11,2,18,0.00
2013-5-12,87.1,65.4,46.0,53.5,42.3,29.0,84,50,14,30.26,30.10,11,2,21,0.00
2013-5-13,83.7,59.3,46.2,51.8,41.5,26.8,90,60,14,30.16,29.99,16,3,31,0.00
2013-5-14,75.9,57.4,40.5,47.1,36.2,15.9,89,54,14,30.15,30.05,10,2,25,0.00
2013-5-15,75.0,56.2,39.7,46.9,38.0,26.7,90,56,19,30.10,29.96,11,2,19,0.00
2013-5-16,63.7,55.9,45.0,44.9,41.8,38.5,92,60,43,30.00,29.91,7,2,12,0.00
2013-5-17,63.3,49.0,43.7,48.2,44.6,41.4,99,86,47,30.03,29.93,7,1,14,0.35
2013-5-18,67.6,50.4,41.7,45.5,39.4,29.7,99,70,27,30.13,30.02,11,2,24,0.09
2013-5-19,61.5,50.0,38.5,39.8,37.3,34.0,94,64,37,30.27,30.12,11,3,21,0.00
2013-5-20,78.8,55.8,36.3,42.2,38.4,32.9,96,59,21,30.27,30.08,8,2,11,0.00
2013-5-21,72.5,55.5,38.8,49.5,38.2,29.3,92,58,22,30.08,29.74,18,3,34,0.00
2013-5-22,56.3,42.8,30.9,43.2,27.8,7.4,95,61,16,30.00,29.77,12,3,21,0.00
2013-5-23,64.4,44.4,25.0,30.4,19.9,0.6,92,47,10,30.01,29.92,12,2,19,0.00
2013-5-24,65.7,46.8,32.9,38.2,31.9,27.1,86,59,29,30.04,30.00,14,3,26,0.00
2013-5-25,73.6,52.2,41.7,41.8,36.1,26.0,85,59,17,30.04,30.00,17,2,27,0.00
2013-5-26,66.0,48.8,40.3,47.0,41.7,34.2,99,78,46,30.04,29.98,8,2,16,0.11
2013-5-27,65.3,49.5,41.5,48.0,42.3,33.9,99,80,36,30.06,29.91,11,2,20,0.14
2013-5-28,59.9,48.7,42.4,47.8,43.8,40.4,99,85,51,29.94,29.85,9,2,14,0.32
2013-5-29,60.3,45.6,37.4,47.9,42.1,36.4,99,88,56,29.99,29.82,9,2,18,0.14
2013-5-30,62.6,47.6,36.9,44.9,39.1,34.5,99,75,38,30.16,29.98,9,2,18,0.00
2013-5-31,70.0,50.9,32.9,40.2,33.2,25.3,99,58,19,30.29,30.15,10,2,15,0.00
2013-6-1,76.8,56.4,35.1,43.9,37.0,31.1,91,55,21,30.30,30.06,11,2,14,0.00
2013-6-2,72.1,54.9,41.9,48.2,40.3,31.4,90,62,25,30.07,29.93,11,3,21,0.00
2013-6-3,74.8,54.8,35.1,42.5,36.8,30.2,98,57,20,30.11,30.05,10,2,17,0.00
2013-6-4,79.7,60.0,38.8,45.8,37.9,29.5,94,52,17,30.17,30.09,9,2,17,0.00
2013-6-5,87.8,63.5,41.9,50.4,41.0,29.4,89,52,13,30.19,30.11,11,2,17,0.00
2013-6-6,91.8,66.4,48.0,53.5,45.2,33.0,89,54,13,30.17,30.07,6,1,10,0.00
2013-6-7,86.0,68.0,48.9,54.0,44.9,26.5,87,50,14,30.12,30.03,11,2,21,0.00
2013-6-8,87.8,67.0,44.8,48.3,39.2,18.1,85,44,10,30.15,30.09,8,2,14,0.00
2013-6-9,92.3,67.6,46.6,53.2,41.5,21.0,86,47,10,30.13,29.95,11,2,21,0.00
2013-6-10,90.9,68.4,46.8,48.2,37.5,14.0,85,42,10,29.99,29.82,16,2,27,0.00
2013-6-11,80.2,64.9,50.5,52.6,42.4,31.1,77,48,18,30.02,29.87,11,2,21,0.00
2013-6-12,78.8,61.2,43.3,49.8,39.9,23.8,92,53,14,30.06,29.98,14,2,21,0.00
2013-6-13,65.1,55.6,43.5,45.8,36.9,25.2,95,52,23,30.14,30.03,16,4,26,0.04
2013-6-14,72.5,51.5,41.4,43.8,37.9,28.6,92,64,21,30.24,30.13,8,2,16,0.02
2013-6-15,86.2,58.7,33.6,46.7,33.2,20.6,95,50,10,30.18,30.06,5,2,11,0.00
2013-6-16,92.1,66.8,42.3,47.5,34.8,21.4,83,41,10,30.13,30.05,10,2,14,0.00
2013-6-17,89.1,67.2,46.4,49.5,37.3,21.8,72,40,10,30.14,29.97,12,2,26,0.00
2013-6-18,82.2,65.0,46.8,51.5,41.2,27.3,89,48,15,29.99,29.82,16,2,31,0.00
2013-6-19,54.7,49.4,45.7,49.7,47.0,45.2,99,91,76,29.90,29.82,9,2,15,0.39
2013-7-5,91.8,70.6,48.6,62.4,45.6,25.8,84,50,10,30.01,29.93,11,2,17,0.05
2013-7-6,98.8,71.0,44.1,53.8,41.7,25.4,99,48,10,30.03,29.95,8,2,11,0.00
2013-7-7,107.1,73.8,46.0,54.7,42.6,32.5,82,43,10,30.03,29.96,8,2,13,0.00
2013-7-8,100.9,73.1,50.0,59.7,43.1,24.8,87,44,10,30.19,29.99,11,2,18,0.00
2013-7-9,106.5,74.5,46.8,56.2,43.6,29.9,91,46,10,30.26,30.17,4,2,7,0.00
2013-7-10,106.2,75.7,49.3,55.6,43.0,27.3,82,41,10,30.18,29.99,8,2,11,0.00
2013-7-11,89.8,62.1,54.0,59.0,49.8,42.6,83,68,20,30.06,30.01,7,2,12,0.01
2013-7-12,99.3,68.6,45.9,61.0,46.9,29.0,99,58,10,30.06,29.95,11,2,23,0.00
2013-7-13,98.1,68.8,44.8,52.8,38.8,22.2,88,45,10,30.18,30.02,11,2,20,0.00
2013-7-14,103.8,72.6,46.0,52.9,39.6,26.7,95,42,10,30.24,30.10,7,2,12,0.00
2013-7-15,111.9,73.9,46.4,58.0,43.1,29.7,89,44,10,30.13,30.00,11,1,16,0.00
2013-7-16,113.2,77.7,52.3,59.6,50.5,36.9,85,47,10,30.10,29.99,12,2,21,0.00
2013-7-17,107.4,78.7,59.0,64.3,47.7,23.9,85,45,10,30.23,30.08,8,2,14,0.00
2013-7-18,111.2,78.1,52.0,57.6,45.7,29.9,85,43,10,30.29,30.17,6,2,11,0.00
2013-7-19,112.5,78.3,50.2,57.3,43.6,30.1,90,39,10,30.23,30.09,12,2,16,0.00
2013-7-20,110.7,76.2,50.7,53.0,42.5,27.1,88,40,10,30.14,30.02,8,2,13,0.00
2013-7-21,114.3,76.0,48.4,50.3,39.0,23.0,80,35,10,30.08,30.01,8,2,16,0.00
2013-7-22,106.2,73.5,44.6,52.4,36.4,24.3,68,33,10,30.14,30.05,9,2,16,0.00
2013-7-23,113.0,74.3,44.4,50.4,38.6,27.0,78,36,10,30.22,30.11,5,1,11,0.00
2013-7-24,109.0,77.9,55.2,56.0,39.7,23.9,74,33,10,30.18,30.11,8,2,14,0.00
2013-7-25,109.4,76.8,51.6,52.8,41.4,26.9,81,37,10,30.21,30.15,8,2,11,0.00
2013-7-26,108.3,74.9,52.0,56.9,44.9,25.5,92,43,10,30.27,30.16,12,2,21,0.00
2013-7-27,102.9,75.5,57.2,57.9,41.6,21.3,81,40,10,30.17,30.02,11,2,23,0.00
2013-7-28,103.8,70.9,46.8,56.3,36.4,21.9,78,39,10,30.05,29.97,14,2,24,0.00
2013-7-29,98.4,71.9,44.4,50.7,34.0,20.3,80,33,10,30.08,30.00,10,2,17,0.00
2013-7-30,108.7,73.5,52.5,51.6,38.0,21.7,71,35,10,30.22,30.08,11,2,18,0.00
2013-7-31,102.9,71.2,48.4,58.8,42.3,28.2,67,40,10,30.23,30.06,6,1,11,0.00
2013-8-1,96.6,67.5,46.9,59.2,49.2,41.0,99,58,15,30.11,29.95,16,2,28,0.00
2013-8-2,92.5,62.4,41.2,58.3,44.2,27.1,99,62,13,30.16,30.06,9,2,15,0.00
2013-8-3,102.4,67.1,41.4,52.3,39.7,23.0,99,51,10,30.20,30.13,7,1,15,0.00
2013-8-4,101.7,68.4,42.8,52.4,38.5,23.6,93,46,10,30.21,30.10,8,2,11,0.00
2013-8-5,108.1,72.7,46.2,54.6,40.3,26.6,83,41,10,30.14,30.04,11,2,18,0.00
2013-8-6,110.5,74.8,48.9,54.5,42.4,28.6,93,42,10,30.17,30.08,5,1,9,0.00
2013-8-7,107.4,74.2,46.8,51.1,38.1,24.1,89,38,10,30.15,30.03,6,2,14,0.00
2013-8-8,106.3,72.1,52.9,53.0,41.6,28.1,74,40,10,30.09,30.01,8,2,16,0.00
2013-8-9,102.2,73.1,52.5,55.1,44.1,30.0,82,43,10,30.08,30.00,12,2,24,0.00
2013-8-10,100.2,70.4,49.1,53.4,40.1,23.9,91,44,10,30.11,30.05,11,2,19,0.00
2013-8-11,94.3,66.9,52.7,62.3,46.3,26.5,87,52,10,30.14,30.08,7,2,11,0.00
2013-8-12,87.8,59.0,46.4,53.8,47.2,43.1,97,70,28,30.15,30.10,4,1,8,0.00
2013-8-13,106.2,74.0,53.1,65.9,45.4,24.8,99,48,10,30.24,30.12,11,2,19,0.00
2013-8-14,105.8,73.3,48.0,54.8,40.9,21.5,83,42,10,30.17,30.07,5,2,8,0.00
2013-8-15,110.1,80.2,47.8,50.5,35.2,27.0,84,24,10,30.15,30.05,7,2,15,0.00
2013-8-16,105.3,73.3,49.1,55.0,38.2,27.1,77,36,10,30.17,30.08,11,2,20,0.00
2013-8-17,110.1,74.6,48.4,55.0,42.2,29.0,88,41,10,30.19,30.08,21,2,27,0.00
2013-8-18,106.5,73.1,50.5,56.3,45.0,26.4,89,47,10,30.21,30.13,14,2,21,0.00
2013-8-19,107.6,73.5,49.3,55.5,41.8,25.5,90,43,10,30.22,30.09,14,2,25,0.00
2013-8-20,106.3,72.7,48.2,51.2,41.2,24.8,85,42,10,30.17,30.07,11,2,18,0.00
2013-8-21,103.3,72.0,47.8,54.5,43.0,27.3,89,47,10,30.18,30.10,14,2,20,0.00
2013-8-22,99.3,74.0,54.7,59.0,48.8,39.8,92,47,14,30.18,30.02,13,2,24,0.00
2013-8-23,102.0,68.9,51.3,60.3,45.8,24.8,98,56,10,30.10,29.97,12,2,19,0.00
2013-8-24,104.9,68.7,45.1,56.4,43.8,32.3,89,50,10,30.04,29.93,8,1,17,0.00
2013-8-25,95.4,69.9,50.2,53.4,45.7,36.6,90,49,15,30.09,29.99,12,2,20,0.00
2013-8-26,97.2,67.4,49.5,54.9,41.6,23.6,84,48,10,30.15,30.06,13,2,21,0.00
2013-8-27,106.3,68.8,44.6,58.5,43.5,31.6,99,50,10,30.13,29.99,15,2,27,0.00
2013-8-28,103.8,72.0,56.3,61.6,52.3,31.9,99,61,10,30.12,30.00,8,2,14,0.00
2013-8-29,102.9,71.3,51.6,64.5,48.0,30.1,93,53,10,30.17,30.11,12,2,21,0.00
2013-8-30,101.8,68.2,45.9,53.1,40.9,27.0,95,48,10,30.25,30.15,10,2,18,0.00
2013-8-31,112.3,70.8,44.2,54.4,42.1,28.9,99,48,10,30.22,30.08,5,1,8,0.00
2013-9-1,103.3,68.6,46.0,57.7,41.2,26.6,88,46,10,30.13,30.01,7,1,12,0.00
2013-9-2,93.2,67.1,54.1,65.1,51.7,40.9,92,60,22,30.14,30.03,7,1,14,0.00
2013-9-3,98.1,67.7,57.4,71.1,57.4,50.0,99,74,21,30.21,30.12,8,2,16,0.00
2013-9-4,107.8,73.3,54.3,64.3,56.4,45.6,99,65,14,30.23,30.11,8,1,13,0.00
2013-9-5,94.1,57.4,-28.7,67.0,38.0,-67.9,99,61,10,30.22,30.03,24,2,42,0.01
2013-9-6,93.2,45.7,21.6,50.4,5.9,-26.5,79,24,10,30.21,30.10,12,4,21,0.01
2013-9-7,101.7,62.6,39.6,52.6,42.2,30.1,99,60,10,30.21,30.11,8,2,13,0.00
2013-9-8,98.4,61.6,41.4,51.4,44.9,37.1,99,62,12,30.15,30.07,11,2,20,0.00
2013-9-9,95.2,64.3,42.4,51.5,45.5,35.8,99,60,13,30.17,30.08,10,2,17,0.00
2013-9-10,104.9,66.5,42.8,53.3,42.6,25.9,99,57,10,30.17,30.08,8,1,14,0.00
2013-9-11,108.5,71.8,42.8,50.8,40.7,28.4,98,43,10,30.21,30.10,9,2,16,0.00
2013-9-12,102.9,70.1,53.6,62.7,49.8,37.8,97,55,11,30.20,30.09,5,1,9,0.00
2013-9-13,96.4,63.2,55.2,78.0,59.4,52.2,99,91,24,30.14,29.99,8,1,15,0.00
2013-9-14,96.3,66.0,50.5,75.3,54.6,46.8,99,73,26,30.07,30.01,8,1,16,0.00
2013-9-15,103.6,69.0,54.1,58.4,52.8,42.0,99,63,15,30.07,29.95,12,1,20,0.00
2013-9-16,95.9,64.9,48.7,63.1,44.7,24.1,99,63,10,30.05,29.97,12,2,19,0.00
2013-9-17,77.4,55.4,42.4,54.6,45.4,38.7,98,72,30,29.98,29.78,11,2,22,0.00
2013-9-18,75.7,49.5,35.6,45.6,40.1,30.0,99,74,20,30.19,29.91,12,2,24,0.00
2013-9-19,37.4,34.5,32.4,37.1,34.3,32.1,99,99,99,30.23,30.19,4,1,6,0.00
2013-9-20,99.3,69.3,31.6,48.3,35.2,20.6,99,40,10,30.12,29.81,7,2,12,0.00
2013-9-21,78.3,58.1,44.2,42.2,36.9,31.4,77,48,20,29.88,29.79,9,2,16,0.00
2013-9-22,79.2,51.9,43.0,49.1,41.6,35.0,99,70,22,29.94,29.78,11,2,21,0.00
2013-9-23,80.8,52.3,38.8,52.6,42.2,32.2,99,74,21,30.09,29.94,13,2,22,0.00
2013-9-24,48.0,44.6,40.8,46.5,43.5,40.6,99,96,83,30.03,29.85,10,1,15,0.00
2013-9-25,57.7,43.7,36.5,46.9,39.0,34.7,99,85,51,29.85,29.76,9,2,18,0.00
2013-9-26,68.7,43.8,34.7,42.1,36.3,30.9,99,78,30,30.05,29.82,11,3,22,0.00
2013-9-27,64.6,43.0,30.6,42.2,34.6,30.3,99,77,33,30.13,30.04,11,2,19,0.00
2013-9-28,60.6,45.6,38.3,52.3,43.8,38.0,99,94,62,30.13,29.92,11,2,20,0.00
2013-9-29,55.6,44.2,37.2,49.6,42.0,36.6,99,93,53,29.95,29.81,17,2,30,0.00
2013-9-30,74.5,42.2,-39.1,53.4,25.0,-74.5,99,62,10,30.05,29.75,16,3,30,0.00
2013-10-1,77.7,44.5,29.5,61.4,33.3,27.2,99,71,19,30.05,29.90,14,2,21,0.00
2013-10-2,41.2,30.0,25.3,37.9,29.0,25.1,99,96,73,30.03,29.97,4,1,6,0.00
2013-10-3,63.3,45.5,33.8,35.2,31.3,25.4,97,61,27,30.17,29.83,14,5,27,0.00
2013-10-4,80.8,45.0,25.9,31.5,25.1,11.0,97,61,10,30.31,30.16,8,2,12,0.00
2013-10-5,87.3,45.1,23.4,39.0,27.7,15.4,99,68,10,30.34,30.25,4,1,6,0.00
2013-10-6,90.1,47.7,25.0,39.0,28.3,13.6,99,64,10,30.27,30.02,8,1,12,0.00
2013-10-7,82.2,47.1,28.6,42.6,29.8,15.8,99,62,10,30.02,29.85,9,2,21,0.00
2013-10-8,63.0,39.9,28.2,37.3,32.7,27.5,99,79,28,29.90,29.83,11,2,17,0.00
2013-10-9,33.6,32.8,30.9,33.4,32.6,30.7,99,99,99,29.83,29.81,2,0,4,0.00
2013-10-10,73.0,42.1,27.3,39.2,30.8,19.1,99,74,14,29.88,29.74,8,1,13,0.00
2013-10-11,78.8,50.8,25.0,35.0,24.4,11.5,99,49,10,29.99,29.88,4,1,10,0.00
2013-10-12,69.3,42.4,28.2,38.3,32.4,27.5,98,73,22,29.94,29.88,5,1,12,0.00
2013-10-13,70.7,43.8,28.2,39.7,32.4,27.6,99,72,20,30.08,29.92,10,2,20,0.00
2013-10-14,75.2,51.3,26.2,33.5,24.0,13.4,99,50,10,30.19,30.08,8,3,15,0.00
2013-10-15,67.5,67.5,67.5,16.6,16.6,16.6,14,14,14,30.24,30.12,4,4,8,0.00
2013-10-16,67.5,67.5,67.5,16.6,16.6,16.6,14,14,14,30.13,30.00,4,4,8,0.00
2013-10-17,67.5,67.5,67.5,16.6,16.6,16.6,14,14,14,30.13,30.04,4,4,8,0.00
2013-10-18,67.5,67.5,67.5,16.6,16.6,16.6,14,14,14,30.19,30.11,4,4,8,0.00
2013-10-19,67.5,67.5,67.5,16.6,16.6,16.6,14,14,14,30.14,30.01,4,4,8,0.00
2013-10-20,67.5,67.5,67.5,16.6,16.6,16.6,14,14,14,30.09,30.02,4,4,8,0.00
2013-10-21,67.5,67.5,67.5,16.6,16.6,16.6,14,14,14,30.14,30.08,4,4,8,0.00
2013-10-22,67.5,67.5,67.5,16.6,16.6,16.6,14,14,14,30.17,30.06,4,4,8,0.00
2013-10-23,67.5,67.5,67.5,16.6,16.6,16.6,14,14,14,30.11,30.07,4,4,8,0.00
2013-11-19,0.0,0.0,0.0,16.6,16.6,16.6,0,0,100,29.57,29.53,0,0,0,0.00
2013-11-20,0.0,0.0,0.0,16.6,16.6,16.6,0,0,100,29.82,29.51,0,0,0,0.00
2013-11-21,0.0,0.0,0.0,16.6,16.6,16.6,0,0,100,30.18,29.81,0,0,0,0.00
2013-11-22,0.0,0.0,0.0,16.6,16.6,16.6,0,0,100,30.20,30.12,0,0,0,0.00
2013-11-23,0.0,0.0,0.0,16.6,16.6,16.6,0,0,100,30.13,29.94,0,0,0,0.00
2013-11-24,0.0,0.0,0.0,16.6,16.6,16.6,0,0,100,29.94,29.91,0,0,0,0.00
2013-12-13,0.0,0.0,0.0,16.6,16.6,16.6,0,0,100,30.08,29.94,0,0,0,0.00
2013-12-14,0.0,0.0,0.0,16.6,16.6,16.6,0,0,100,30.17,30.08,0,0,0,0.00
2013-12-15,0.0,0.0,0.0,16.6,16.6,16.6,0,0,100,30.14,30.02,0,0,0,0.00
2013-12-16,0.0,0.0,0.0,16.6,16.6,16.6,0,0,100,30.14,30.07,0,0,0,0.00
2013-12-17,0.0,0.0,0.0,16.6,16.6,16.6,0,0,100,30.13,29.83,0,0,0,0.00
2013-12-18,0.0,0.0,0.0,16.6,16.6,16.6,0,0,100,29.83,29.51,0,0,0,0.00
2013-12-19,0.0,0.0,0.0,16.6,16.6,16.6,0,0,100,29.71,29.51,0,0,0,0.00
2013-12-20,0.0,0.0,0.0,16.6,16.6,16.6,0,0,100,29.70,29.45,0,0,0,0.00
2013-12-21,0.0,0.0,0.0,16.6,16.6,16.6,0,0,100,29.77,29.46,0,0,0,0.00
2013-12-22,0.0,0.0,0.0,16.6,16.6,16.6,0,0,100,29.99,29.76,0,0,0,0.00
2013-12-23,0.0,0.0,0.0,16.6,16.6,16.6,0,0,100,30.01,29.86,0,0,0,0.00
2013-12-24,0.0,0.0,0.0,16.6,16.6,16.6,0,0,100,30.19,29.95,0,0,0,0.00
2013-12-25,0.0,0.0,0.0,16.6,16.6,16.6,0,0,100,30.21,30.11,0,0,0,0.00
2013-12-26,0.0,0.0,0.0,16.6,16.6,16.6,0,0,100,30.14,30.06,0,0,0,0.00
2013-12-27,0.0,0.0,0.0,16.6,16.6,16.6,0,0,100,30.08,29.87,0,0,0,0.00
2013-12-28,0.0,0.0,0.0,16.6,16.6,16.6,0,0,100,30.04,29.86,0,0,0,0.00
2013-12-29,0.0,0.0,0.0,16.6,16.6,16.6,0,0,100,30.06,29.94,0,0,0,0.00
2013-12-30,0.0,0.0,0.0,16.6,16.6,16.6,0,0,100,30.00,29.91,0,0,0,0.00
2013-12-31,0.0,0.0,0.0,16.6,16.6,16.6,0,0,100,29.98,29.84,0,0,0,0.00
2014-1-1,0.0,0.0,0.0,16.6,16.6,16.6,0,0,100,30.08,29.98,0,0,0,0.00
2014-1-2,0.0,0.0,0.0,16.6,16.6,16.6,0,0,100,30.03,29.77,0,0,0,0.00